Terminal Aerodrome Forecast
Issued by NWS Wilmington, OH

Current Version | Previous Version | Graphics & Text | Print | Product List | Glossary On
Versions: 1 2 3 4 5 6 7 8 9 10 11 12 13 14 15 16 17 18 19
000
FTUS41 KILN 211000 AAA
TAFILN
TAF AMD
KILN 211001Z 2110/2206 02008KT P6SM SCT015 OVC035
     FM211100 03007KT 5SM BR FEW008 BKN015
     FM211400 36008KT P6SM BKN035
     FM212200 32012KT P6SM SCT040=

USA.gov is the U.S. government's official web portal to all federal, state and local government web resources and services.